Time;durP1;ratioP1;P1;durP2;ratioP2;P2;SDS_P1;SDS_P2;PMS_P1;PMS_P2;Temp;Humidity;BMP_temperature;BMP_pressure;BME280_temperature;BME280_humidity;BME280_pressure;Samples;Min_cycle;Max_cycle;Signal;HPM_P1;HPM_P2
2021/11/22 00:01:27;;;;;;;4.63;1.02;;;5.50;99.90;;;;;;4995165;28;20022;-63
2021/11/22 00:03:53;;;;;;;5.13;0.75;;;5.50;99.90;;;;;;5012468;28;20026;-63
2021/11/22 00:06:19;;;;;;;5.00;0.90;;;5.50;99.90;;;;;;5008236;28;20048;-63
2021/11/22 00:08:45;;;;;;;5.88;0.80;;;5.40;99.90;;;;;;4975441;28;20030;-63
2021/11/22 00:11:11;;;;;;;5.00;1.35;;;5.40;99.90;;;;;;4975495;28;20034;-63
2021/11/22 00:13:36;;;;;;;4.75;0.80;;;5.40;99.90;;;;;;4992673;28;20466;-63
2021/11/22 00:16:02;;;;;;;3.08;0.82;;;5.40;99.90;;;;;;4993944;28;20486;-63
2021/11/22 00:18:28;;;;;;;6.22;0.80;;;5.40;99.90;;;;;;5013176;28;20026;-63
2021/11/22 00:20:54;;;;;;;3.13;0.80;;;5.40;99.90;;;;;;5016164;28;20387;-63
2021/11/22 00:23:19;;;;;;;5.00;0.77;;;5.30;99.90;;;;;;5016257;28;20045;-63
2021/11/22 00:25:45;;;;;;;4.60;0.73;;;5.40;99.90;;;;;;5016181;28;20492;-63
2021/11/22 00:28:11;;;;;;;6.18;1.38;;;5.40;99.90;;;;;;5014650;28;20033;-63
2021/11/22 00:30:36;;;;;;;4.43;1.00;;;5.30;99.90;;;;;;5015977;28;20026;-63
2021/11/22 00:33:02;;;;;;;4.53;0.70;;;5.40;99.90;;;;;;5015965;28;20625;-63
2021/11/22 00:35:32;;;;;;;3.13;1.00;;;5.40;99.90;;;;;;5015988;28;20026;-63
2021/11/22 00:37:59;;;;;;;3.75;1.00;;;5.30;99.90;;;;;;5016054;28;20046;-63
2021/11/22 00:40:25;;;;;;;5.60;0.80;;;5.30;99.90;;;;;;5015853;28;20079;-63
2021/11/22 00:42:50;;;;;;;4.43;0.60;;;5.30;99.90;;;;;;5015683;28;20034;-63
2021/11/22 00:45:17;;;;;;;5.80;1.00;;;5.30;99.90;;;;;;5015831;28;20018;-63
2021/11/22 00:47:43;;;;;;;6.05;0.90;;;5.30;99.90;;;;;;5015651;28;20048;-63
2021/11/22 00:50:09;;;;;;;5.13;0.90;;;5.20;99.90;;;;;;5015538;28;20034;-63
2021/11/22 00:52:35;;;;;;;6.25;0.90;;;5.30;99.90;;;;;;5015704;28;20079;-63
2021/11/22 00:55:00;;;;;;;4.75;0.80;;;5.20;99.90;;;;;;5015323;28;20052;-63
2021/11/22 00:57:26;;;;;;;2.22;0.80;;;5.20;99.90;;;;;;5015264;28;20498;-63
2021/11/22 00:59:52;;;;;;;3.40;0.52;;;5.20;99.90;;;;;;5015331;28;20022;-63
2021/11/22 01:02:17;;;;;;;4.00;0.50;;;5.20;99.90;;;;;;5015701;28;20454;-63
2021/11/22 01:04:43;;;;;;;4.13;0.73;;;5.20;99.90;;;;;;5015323;28;20034;-63
2021/11/22 01:07:08;;;;;;;2.90;0.60;;;5.20;99.90;;;;;;5015326;28;20038;-63
2021/11/22 01:09:34;;;;;;;4.35;0.80;;;5.10;99.90;;;;;;5015213;28;20026;-63
2021/11/22 01:12:00;;;;;;;5.32;0.80;;;5.10;99.90;;;;;;5015357;28;20382;-63
2021/11/22 01:14:26;;;;;;;2.53;0.70;;;5.10;99.90;;;;;;5015220;28;20053;-63
2021/11/22 01:16:52;;;;;;;5.20;1.00;;;5.10;99.90;;;;;;5011200;28;20030;-63
2021/11/22 01:19:18;;;;;;;3.70;0.80;;;5.10;99.90;;;;;;4995448;28;20030;-63
2021/11/22 01:21:44;;;;;;;1.88;0.75;;;5.10;99.90;;;;;;4978108;28;20024;-63
2021/11/22 01:24:10;;;;;;;3.15;0.70;;;5.10;99.90;;;;;;4995444;28;20026;-63
2021/11/22 01:26:35;;;;;;;1.75;0.40;;;5.10;99.90;;;;;;4995484;28;20033;-63
2021/11/22 01:29:01;;;;;;;4.60;0.70;;;5.00;99.90;;;;;;4994087;28;20030;-63
2021/11/22 01:31:26;;;;;;;7.20;0.90;;;5.10;99.90;;;;;;4995331;28;20049;-63
2021/11/22 01:33:52;;;;;;;4.20;0.70;;;5.10;99.90;;;;;;4994709;28;20088;-63
2021/11/22 01:36:18;;;;;;;3.08;0.50;;;5.00;99.90;;;;;;4995701;28;20026;-63
2021/11/22 01:38:43;;;;;;;3.65;0.60;;;5.00;99.90;;;;;;4995176;28;20470;-63
2021/11/22 01:41:09;;;;;;;1.92;0.68;;;5.00;99.90;;;;;;4995258;28;20136;-63
2021/11/22 01:43:34;;;;;;;2.90;0.50;;;5.00;99.90;;;;;;4995008;28;20022;-63
2021/11/22 01:46:00;;;;;;;3.13;0.75;;;5.00;99.90;;;;;;4994727;28;20625;-63
2021/11/22 01:48:26;;;;;;;3.83;0.68;;;5.00;99.90;;;;;;4995072;28;20104;-63
2021/11/22 01:50:53;;;;;;;1.80;0.55;;;5.00;99.90;;;;;;4993688;28;20027;-63
2021/11/22 01:53:20;;;;;;;2.95;1.20;;;5.00;99.90;;;;;;4994881;28;20069;-63
2021/11/22 01:55:47;;;;;;;2.83;0.70;;;4.90;99.90;;;;;;4994897;28;20533;-63
2021/11/22 01:58:13;;;;;;;4.00;1.02;;;4.90;99.90;;;;;;5008169;28;20509;-63
2021/11/22 02:00:51;;;;;;;1.65;0.63;;;4.90;99.90;;;;;;5014243;28;20030;-63
2021/11/22 02:03:18;;;;;;;4.35;0.40;;;4.90;99.90;;;;;;5014395;28;20554;-63
2021/11/22 02:05:44;;;;;;;5.20;1.35;;;4.90;99.90;;;;;;5014260;28;20026;-63
2021/11/22 02:08:11;;;;;;;1.70;0.60;;;4.90;99.90;;;;;;4994796;28;20022;-63
2021/11/22 02:10:39;;;;;;;2.58;0.60;;;4.80;99.90;;;;;;4994502;28;20022;-63
2021/11/22 02:13:05;;;;;;;2.42;0.70;;;4.80;99.90;;;;;;4994612;28;20026;-63
2021/11/22 02:15:31;;;;;;;6.38;0.80;;;4.80;99.90;;;;;;4994372;28;20034;-63
2021/11/22 02:18:10;;;;;;;2.80;0.65;;;4.80;99.90;;;;;;5007060;28;20110;-63
2021/11/22 02:20:36;;;;;;;2.13;0.80;;;4.80;99.90;;;;;;5014050;28;20083;-63
2021/11/22 02:23:05;;;;;;;2.55;0.70;;;4.70;99.90;;;;;;4996555;28;20026;-63
2021/11/22 02:25:32;;;;;;;1.38;0.68;;;4.70;99.90;;;;;;5013953;28;20025;-63
2021/11/22 02:27:59;;;;;;;3.15;0.88;;;4.70;99.90;;;;;;5013854;28;20386;-63
2021/11/22 02:30:30;;;;;;;3.60;0.60;;;4.70;99.90;;;;;;5013669;28;20108;-63
2021/11/22 02:33:01;;;;;;;3.53;0.60;;;4.70;99.90;;;;;;5013889;28;20022;-63
2021/11/22 02:35:28;;;;;;;4.18;0.77;;;4.70;99.90;;;;;;5013774;28;20025;-63
2021/11/22 02:37:54;;;;;;;2.30;0.60;;;4.60;99.90;;;;;;5013715;28;20102;-63
2021/11/22 02:40:20;;;;;;;2.15;0.68;;;4.60;99.90;;;;;;5013384;28;20021;-63
2021/11/22 02:42:46;;;;;;;3.80;1.00;;;4.60;99.90;;;;;;5013649;28;20116;-63
2021/11/22 02:45:15;;;;;;;3.95;0.70;;;4.60;99.90;;;;;;4995766;28;20030;-63
2021/11/22 02:47:41;;;;;;;2.03;0.90;;;4.60;99.90;;;;;;5013690;28;20160;-63
2021/11/22 02:50:09;;;;;;;2.83;0.63;;;4.50;99.90;;;;;;5013514;28;20026;-63
2021/11/22 02:52:35;;;;;;;3.40;0.73;;;4.50;99.90;;;;;;5013560;28;20033;-63
2021/11/22 02:55:01;;;;;;;2.53;0.80;;;4.50;99.90;;;;;;4995483;28;20034;-63
2021/11/22 02:57:27;;;;;;;4.97;0.90;;;4.50;99.90;;;;;;5013052;28;20457;-63
2021/11/22 02:59:54;;;;;;;3.17;1.20;;;4.40;99.90;;;;;;5013322;28;20028;-63
2021/11/22 03:02:19;;;;;;;3.95;0.80;;;4.40;99.90;;;;;;5013291;28;20026;-63
2021/11/22 03:04:45;;;;;;;4.57;0.82;;;4.40;99.90;;;;;;4995618;28;20084;-63
2021/11/22 03:07:11;;;;;;;2.03;0.80;;;4.50;99.90;;;;;;5012878;28;20505;-62
2021/11/22 03:09:38;;;;;;;4.80;0.93;;;4.40;99.90;;;;;;5002724;28;20114;-63
2021/11/22 03:12:07;;;;;;;2.35;0.60;;;4.40;99.90;;;;;;4993601;28;20034;-63
2021/11/22 03:14:33;;;;;;;4.97;0.82;;;4.40;99.90;;;;;;4992070;28;20022;-63
2021/11/22 03:17:00;;;;;;;2.38;0.50;;;4.40;99.90;;;;;;4998017;28;20082;-63
2021/11/22 03:19:26;;;;;;;4.57;0.90;;;4.30;99.90;;;;;;5012940;28;20049;-63
2021/11/22 03:21:52;;;;;;;4.93;0.80;;;4.30;99.90;;;;;;5012523;28;20076;-63
2021/11/22 03:24:18;;;;;;;6.65;2.28;;;4.30;99.90;;;;;;4995023;28;20030;-63
2021/11/22 03:26:44;;;;;;;2.78;0.68;;;4.30;99.90;;;;;;4994231;28;20537;-63
2021/11/22 03:29:09;;;;;;;4.00;0.77;;;4.30;99.90;;;;;;4995328;28;20076;-63
2021/11/22 03:31:36;;;;;;;1.88;0.70;;;4.30;99.90;;;;;;5012731;28;20030;-63
2021/11/22 03:34:04;;;;;;;2.85;0.63;;;4.30;99.90;;;;;;5013011;28;20022;-63
2021/11/22 03:36:31;;;;;;;4.28;0.88;;;4.30;99.90;;;;;;5012972;28;20026;-63
2021/11/22 03:38:58;;;;;;;4.43;0.90;;;4.30;99.90;;;;;;4987480;28;20470;-63
2021/11/22 03:41:25;;;;;;;1.20;0.60;;;4.30;99.90;;;;;;5012750;28;20482;-63
2021/11/22 03:43:57;;;;;;;3.28;0.75;;;4.20;99.90;;;;;;5012831;28;20425;-63
2021/11/22 03:46:22;;;;;;;4.97;0.80;;;4.20;99.90;;;;;;5012826;28;20053;-62
2021/11/22 03:48:49;;;;;;;2.38;0.70;;;4.20;99.90;;;;;;5012814;28;20057;-63
2021/11/22 03:51:16;;;;;;;2.65;0.90;;;4.20;99.90;;;;;;5013838;28;20026;-62
2021/11/22 03:53:41;;;;;;;3.00;1.00;;;4.20;99.90;;;;;;5016755;28;20022;-63
2021/11/22 03:56:07;;;;;;;2.83;0.80;;;4.20;99.90;;;;;;4999137;28;20470;-63
2021/11/22 03:58:32;;;;;;;4.40;0.77;;;4.20;99.90;;;;;;5000257;28;20074;-63
2021/11/22 04:00:58;;;;;;;2.35;1.00;;;4.10;99.90;;;;;;4996969;28;20034;-63
2021/11/22 04:03:24;;;;;;;3.30;0.73;;;4.10;99.90;;;;;;4996921;28;20092;-63
2021/11/22 04:05:50;;;;;;;5.45;0.98;;;4.10;99.90;;;;;;4996861;28;20037;-62
2021/11/22 04:08:16;;;;;;;3.03;0.70;;;4.10;99.90;;;;;;4996919;28;20545;-63
2021/11/22 04:10:42;;;;;;;3.40;0.65;;;4.10;99.90;;;;;;4996694;28;20054;-63
2021/11/22 04:13:08;;;;;;;2.08;0.70;;;4.00;99.90;;;;;;4996823;28;20026;-63
2021/11/22 04:15:34;;;;;;;2.60;0.50;;;4.00;99.90;;;;;;4996568;28;20022;-63
2021/11/22 04:18:00;;;;;;;2.53;1.35;;;4.00;99.90;;;;;;4987417;28;20022;-63
2021/11/22 04:20:26;;;;;;;3.20;1.23;;;4.00;99.90;;;;;;4996612;28;20053;-63
2021/11/22 04:22:52;;;;;;;3.08;0.88;;;4.00;99.90;;;;;;4996559;28;20061;-62
2021/11/22 04:25:19;;;;;;;2.17;0.80;;;4.00;99.90;;;;;;4979222;28;20080;-63
2021/11/22 04:27:57;;;;;;;1.30;0.60;;;4.00;99.90;;;;;;4996545;28;20061;-63
2021/11/22 04:30:23;;;;;;;3.60;0.82;;;4.00;99.90;;;;;;4996345;28;20026;-62
2021/11/22 04:32:48;;;;;;;3.28;0.80;;;3.90;99.90;;;;;;4978759;28;20033;-63
2021/11/22 04:35:15;;;;;;;2.80;0.88;;;3.90;99.90;;;;;;4996357;28;20030;-62
2021/11/22 04:37:42;;;;;;;3.40;0.75;;;3.90;99.90;;;;;;4996322;28;20041;-63
2021/11/22 04:40:11;;;;;;;4.63;0.90;;;3.90;99.90;;;;;;4996288;28;20438;-63
2021/11/22 04:42:37;;;;;;;2.67;1.05;;;3.90;99.90;;;;;;4996153;28;20030;-62
2021/11/22 04:45:03;;;;;;;3.17;0.68;;;3.90;99.90;;;;;;4996380;28;20037;-62
2021/11/22 04:47:29;;;;;;;2.90;0.80;;;3.90;99.90;;;;;;4996059;28;20105;-63
2021/11/22 04:49:55;;;;;;;2.95;0.93;;;3.90;99.90;;;;;;4996045;28;20475;-63
2021/11/22 04:52:22;;;;;;;3.03;0.60;;;3.90;99.90;;;;;;4996066;28;20379;-63
2021/11/22 04:54:48;;;;;;;1.80;0.60;;;3.90;99.90;;;;;;4996082;28;20502;-62
2021/11/22 04:57:14;;;;;;;1.60;0.60;;;3.80;99.90;;;;;;5001334;28;20088;-63
2021/11/22 04:59:41;;;;;;;1.02;0.45;;;3.80;99.90;;;;;;5015597;28;20029;-63
2021/11/22 05:02:08;;;;;;;3.83;1.10;;;3.80;99.90;;;;;;5015056;28;20026;-63
2021/11/22 05:04:35;;;;;;;3.47;0.55;;;3.80;99.90;;;;;;5015382;28;20021;-63
2021/11/22 05:07:01;;;;;;;3.28;0.57;;;3.80;99.90;;;;;;5015391;28;20101;-63
2021/11/22 05:09:26;;;;;;;2.90;0.52;;;3.80;99.90;;;;;;4997757;28;20022;-63
2021/11/22 05:11:52;;;;;;;1.40;0.50;;;3.80;99.90;;;;;;5015335;28;20394;-63
2021/11/22 05:14:18;;;;;;;2.10;0.70;;;3.80;99.90;;;;;;5015441;28;20467;-63
2021/11/22 05:16:44;;;;;;;2.17;0.40;;;3.80;99.90;;;;;;5012203;28;20049;-63
2021/11/22 05:19:11;;;;;;;1.92;0.43;;;3.80;99.90;;;;;;5008960;28;20054;-63
2021/11/22 05:21:37;;;;;;;1.98;0.60;;;3.80;99.90;;;;;;5014939;28;20022;-62
2021/11/22 05:24:03;;;;;;;3.55;0.40;;;3.80;99.90;;;;;;5014655;28;20058;-63
2021/11/22 05:26:31;;;;;;;2.58;0.52;;;3.80;99.90;;;;;;5014659;28;20080;-63
2021/11/22 05:28:57;;;;;;;1.13;0.43;;;3.70;99.90;;;;;;4997537;28;20049;-62
2021/11/22 05:31:23;;;;;;;0.75;0.40;;;3.70;99.90;;;;;;5014746;28;20064;-62
2021/11/22 05:33:50;;;;;;;1.85;0.40;;;3.70;99.90;;;;;;5014978;28;20041;-62
2021/11/22 05:36:15;;;;;;;2.05;0.43;;;3.70;99.90;;;;;;5014998;28;20030;-63
2021/11/22 05:38:41;;;;;;;1.58;0.40;;;3.70;99.90;;;;;;5014724;28;20044;-63
2021/11/22 05:41:06;;;;;;;2.03;0.30;;;3.70;99.90;;;;;;5014858;28;20030;-63
2021/11/22 05:43:32;;;;;;;1.83;0.98;;;3.70;99.90;;;;;;5014642;28;20474;-62
2021/11/22 05:45:58;;;;;;;2.28;0.50;;;3.70;99.90;;;;;;5014663;28;20084;-63
2021/11/22 05:48:23;;;;;;;1.65;0.57;;;3.70;99.90;;;;;;5014673;28;20029;-62
2021/11/22 05:50:53;;;;;;;2.63;0.63;;;3.60;99.90;;;;;;5014383;28;20031;-63
2021/11/22 05:53:19;;;;;;;9.25;2.13;;;3.60;99.90;;;;;;5014636;28;20037;-63
2021/11/22 05:55:46;;;;;;;2.50;0.60;;;3.60;99.90;;;;;;5014629;28;20393;-62
2021/11/22 05:58:13;;;;;;;1.42;0.40;;;3.60;99.90;;;;;;5014193;28;20057;-62
2021/11/22 06:00:40;;;;;;;2.60;0.60;;;3.60;99.90;;;;;;5012836;28;20393;-62
2021/11/22 06:03:06;;;;;;;2.95;0.50;;;3.50;99.90;;;;;;5014589;28;20026;-62
2021/11/22 06:05:33;;;;;;;1.83;0.55;;;3.50;99.90;;;;;;5014203;28;20018;-62
2021/11/22 06:07:58;;;;;;;1.83;0.60;;;3.50;99.90;;;;;;5014284;28;20021;-62
2021/11/22 06:10:36;;;;;;;1.27;0.47;;;3.50;99.90;;;;;;5014594;28;20030;-62
2021/11/22 06:13:02;;;;;;;4.20;2.35;;;3.50;99.90;;;;;;5013857;28;20038;-62
2021/11/22 06:15:28;;;;;;;2.15;0.40;;;3.50;99.90;;;;;;4996171;28;20114;-62
2021/11/22 06:17:53;;;;;;;1.50;0.40;;;3.50;99.90;;;;;;5004791;28;20359;-62
2021/11/22 06:20:19;;;;;;;1.58;0.50;;;3.50;99.90;;;;;;5013951;28;20026;-62
2021/11/22 06:22:45;;;;;;;3.53;0.65;;;3.50;99.90;;;;;;4996590;28;20492;-62
2021/11/22 06:25:20;;;;;;;0.93;0.50;;;3.50;99.90;;;;;;5014003;28;20033;-62
2021/11/22 06:27:46;;;;;;;2.13;0.40;;;3.40;99.90;;;;;;5013881;28;20055;-62
2021/11/22 06:30:12;;;;;;;1.95;0.40;;;3.40;99.90;;;;;;5013899;28;20108;-62
2021/11/22 06:32:37;;;;;;;1.58;0.50;;;3.40;99.90;;;;;;4996143;28;20113;-62
2021/11/22 06:35:04;;;;;;;3.72;0.70;;;3.30;99.90;;;;;;5013572;28;20165;-63
2021/11/22 06:38:12;;;;;;;2.58;0.60;;;3.30;99.90;;;;;;4996041;28;20022;-62
2021/11/22 06:40:39;;;;;;;3.70;0.57;;;3.30;99.90;;;;;;5013745;28;20033;-62
2021/11/22 06:43:04;;;;;;;1.92;0.50;;;3.20;99.90;;;;;;5013657;28;20018;-62
2021/11/22 06:45:30;;;;;;;2.42;0.65;;;3.20;99.90;;;;;;5013061;28;20461;-62
2021/11/22 06:47:56;;;;;;;1.30;0.50;;;3.20;99.90;;;;;;5013578;28;20037;-62
2021/11/22 06:50:21;;;;;;;2.03;0.60;;;3.20;99.90;;;;;;5013299;28;20371;-62
2021/11/22 06:52:47;;;;;;;3.13;0.50;;;3.30;99.90;;;;;;5013307;28;20109;-63
2021/11/22 06:55:14;;;;;;;1.15;0.50;;;3.20;99.90;;;;;;5012780;28;20022;-62
2021/11/22 06:57:40;;;;;;;2.45;0.70;;;3.20;99.90;;;;;;5013139;28;20104;-63
2021/11/22 07:00:26;;;;;;;0.85;0.32;;;3.20;99.90;;;;;;5013075;28;20026;-63
2021/11/22 07:03:30;;;;;;;;;;;;;;;;;;;;;
2021/11/22 07:05:56;;;;;;;1.05;0.40;;;3.20;99.90;;;;;;5012614;28;20030;-62
2021/11/22 07:08:21;;;;;;;2.05;0.65;;;3.20;99.90;;;;;;4994928;28;20572;-62
2021/11/22 07:10:47;;;;;;;2.58;0.60;;;3.20;99.90;;;;;;5013040;28;20094;-63
2021/11/22 07:13:13;;;;;;;3.70;0.60;;;3.20;99.90;;;;;;4995562;28;20445;-62
2021/11/22 07:15:38;;;;;;;3.88;0.80;;;3.20;99.90;;;;;;5013043;28;20064;-63
2021/11/22 07:18:05;;;;;;;3.83;1.42;;;3.20;99.90;;;;;;5012986;28;20022;-63
2021/11/22 07:20:31;;;;;;;1.83;0.60;;;3.20;99.90;;;;;;5012894;28;20037;-63
2021/11/22 07:22:57;;;;;;;1.23;0.63;;;3.20;99.90;;;;;;5008961;28;20080;-63
2021/11/22 07:25:23;;;;;;;1.50;0.50;;;3.20;99.90;;;;;;4994597;28;20029;-63
2021/11/22 07:27:49;;;;;;;2.55;0.50;;;3.20;99.90;;;;;;5018287;28;20105;-63
2021/11/22 07:30:21;;;;;;;1.73;0.60;;;3.20;99.90;;;;;;5008895;28;20033;-63
2021/11/22 07:32:52;;;;;;;3.88;1.00;;;3.20;99.90;;;;;;5011468;28;20409;-63
2021/11/22 07:35:19;;;;;;;3.88;0.70;;;3.20;99.90;;;;;;5010462;28;20030;-63
2021/11/22 07:37:46;;;;;;;5.45;1.08;;;3.20;99.90;;;;;;4977969;28;20076;-63
2021/11/22 07:40:12;;;;;;;2.17;0.50;;;3.20;99.90;;;;;;5009216;28;20504;-63
2021/11/22 07:42:38;;;;;;;1.67;0.70;;;3.30;99.90;;;;;;5011075;28;20037;-63
2021/11/22 07:45:04;;;;;;;1.10;0.57;;;3.30;99.90;;;;;;5011608;28;20025;-63
2021/11/22 07:47:32;;;;;;;2.40;0.70;;;3.30;99.90;;;;;;5011053;28;20030;-63
2021/11/22 07:49:57;;;;;;;1.60;0.70;;;3.30;99.90;;;;;;4993131;28;20497;-63
2021/11/22 07:52:23;;;;;;;1.58;0.60;;;3.30;99.90;;;;;;5017278;28;20030;-63
2021/11/22 07:54:49;;;;;;;1.17;0.60;;;3.40;99.90;;;;;;4978133;28;20029;-63
2021/11/22 07:57:16;;;;;;;2.58;0.70;;;3.40;99.90;;;;;;5013484;28;20536;-63
2021/11/22 07:59:42;;;;;;;2.80;0.80;;;3.40;99.90;;;;;;4977480;28;20110;-63
2021/11/22 08:02:07;;;;;;;3.13;0.73;;;3.40;99.90;;;;;;4990989;28;20102;-63
2021/11/22 08:04:54;;;;;;;;;;;;;;;;;;;;;
2021/11/22 08:07:22;;;;;;;2.40;0.80;;;3.50;99.90;;;;;;5001953;28;20363;-62
2021/11/22 08:09:59;;;;;;;3.00;1.33;;;3.50;99.90;;;;;;5009029;28;20022;-62
2021/11/22 08:12:40;;;;;;;2.55;0.60;;;3.50;99.90;;;;;;4987165;28;20552;-62
2021/11/22 08:15:10;;;;;;;5.47;0.70;;;3.60;99.90;;;;;;4978036;28;20475;-62
2021/11/22 08:17:44;;;;;;;2.75;0.60;;;3.60;99.90;;;;;;4979667;28;20474;-62
2021/11/22 08:20:11;;;;;;;2.97;0.60;;;3.60;99.90;;;;;;4960079;28;20015;-63
2021/11/22 08:22:37;;;;;;;1.80;0.60;;;3.70;99.90;;;;;;4980777;28;20023;-63
2021/11/22 08:25:10;;;;;;;2.00;0.80;;;3.70;99.90;;;;;;4998030;28;20072;-62
2021/11/22 08:27:57;;;;;;;1.88;0.68;;;3.80;99.90;;;;;;4957026;28;20227;-63
2021/11/22 08:30:26;;;;;;;3.05;0.75;;;3.80;99.90;;;;;;4985257;28;20394;-62
2021/11/22 08:32:53;;;;;;;2.83;0.60;;;3.80;99.90;;;;;;4969721;28;20121;-62
2021/11/22 08:35:20;;;;;;;1.63;0.63;;;3.90;99.90;;;;;;4991079;28;20080;-62
2021/11/22 08:37:48;;;;;;;2.80;1.00;;;3.90;99.90;;;;;;4992621;28;20034;-61
2021/11/22 08:40:18;;;;;;;2.33;0.90;;;3.90;99.90;;;;;;5001293;28;20021;-62
2021/11/22 08:42:58;;;;;;;2.63;0.75;;;4.00;99.90;;;;;;4985417;28;20472;-61
2021/11/22 08:45:48;;;;;;;3.58;0.85;;;4.10;99.90;;;;;;4988595;28;20023;-62
2021/11/22 08:51:36;;;;;;;2.28;0.80;;;4.10;99.90;;;;;;4933373;29;20042;-62
2021/11/22 08:54:16;;;;;;;3.72;1.00;;;4.20;99.90;;;;;;4985722;28;20039;-62
2021/11/22 08:56:42;;;;;;;;;;;4.20;99.90;;;;;;4988245;28;20081;-62
2021/11/22 08:59:07;;;;;;;2.70;0.63;;;4.20;99.90;;;;;;4992223;28;20386;-62
2021/11/22 09:01:33;;;;;;;1.75;0.82;;;4.30;99.90;;;;;;4990699;28;20061;-62
2021/11/22 09:03:59;;;;;;;2.53;0.65;;;4.40;99.90;;;;;;4994669;28;20389;-62
2021/11/22 09:06:24;;;;;;;1.98;0.88;;;4.40;99.90;;;;;;4993877;28;20073;-62
2021/11/22 09:08:57;;;;;;;2.20;1.00;;;4.50;99.90;;;;;;4992634;28;20053;-62
2021/11/22 09:11:37;;;;;;;2.50;0.80;;;4.60;99.90;;;;;;4958003;28;20489;-62
2021/11/22 09:14:03;;;;;;;;;;;4.60;99.90;;;;;;4990206;28;20023;-61
2021/11/22 09:16:29;;;;;;;2.65;0.70;;;4.70;99.90;;;;;;4992457;28;19905;-62
2021/11/22 09:18:56;;;;;;;3.25;0.98;;;4.70;99.90;;;;;;4975325;28;20485;-62
2021/11/22 09:21:21;;;;;;;2.38;0.60;;;4.90;99.90;;;;;;4992787;28;20065;-62
2021/11/22 09:24:07;;;;;;;2.03;0.80;;;5.00;99.90;;;;;;4994103;28;20031;-62
2021/11/22 09:26:33;;;;;;;1.83;0.60;;;5.20;99.90;;;;;;4990850;28;20057;-62
2021/11/22 09:28:59;;;;;;;2.63;0.90;;;5.30;99.90;;;;;;4992603;28;20062;-62
2021/11/22 09:31:25;;;;;;;2.95;0.70;;;5.50;99.90;;;;;;4993237;28;20026;-62
2021/11/22 09:33:53;;;;;;;2.55;0.60;;;5.70;99.90;;;;;;4975404;28;20498;-62
2021/11/22 09:36:19;;;;;;;2.00;0.60;;;5.90;99.90;;;;;;4993167;28;20022;-62
2021/11/22 09:38:45;;;;;;;2.55;0.70;;;6.00;99.90;;;;;;4992755;28;20018;-62
2021/11/22 09:41:38;;;;;;;;;;;;;;;;;;;;;
2021/11/22 09:44:04;;;;;;;1.50;0.80;;;6.30;99.90;;;;;;4985002;28;20486;-62
2021/11/22 09:46:50;;;;;;;1.00;0.55;;;6.40;99.90;;;;;;4992507;28;20101;-62
2021/11/22 09:49:54;;;;;;;1.63;0.82;;;6.50;99.90;;;;;;4989047;28;20029;-62
2021/11/22 09:52:23;;;;;;;2.13;0.55;;;6.80;99.90;;;;;;4993636;28;20072;-62
2021/11/22 09:54:49;;;;;;;;;;;6.80;99.90;;;;;;4992873;28;20462;-62
2021/11/22 09:57:15;;;;;;;1.63;0.70;;;7.00;99.90;;;;;;4992861;28;19920;-62
2021/11/22 09:59:42;;;;;;;5.63;1.10;;;7.30;99.90;;;;;;5012165;28;20404;-63
2021/11/22 10:02:08;;;;;;;2.20;0.70;;;7.70;99.90;;;;;;5011284;28;20113;-62
2021/11/22 10:04:47;;;;;;;3.45;0.93;;;8.10;99.90;;;;;;5012546;28;20101;-62
2021/11/22 10:07:16;;;;;;;1.52;0.60;;;8.50;99.50;;;;;;4980990;28;20112;-62
2021/11/22 10:09:45;;;;;;;2.65;0.60;;;8.70;99.20;;;;;;5006071;28;20058;-62
2021/11/22 10:12:31;;;;;;;1.85;0.70;;;8.90;98.90;;;;;;4987389;28;20386;-62
2021/11/22 10:15:02;;;;;;;4.22;0.60;;;9.20;98.40;;;;;;4997459;28;20018;-62
2021/11/22 10:17:48;;;;;;;2.05;0.60;;;9.50;98.40;;;;;;5009653;28;20549;-62
2021/11/22 10:20:17;;;;;;;2.33;0.70;;;10.00;97.90;;;;;;5001857;28;20080;-62
2021/11/22 10:23:19;;;;;;;3.75;0.50;;;10.50;97.70;;;;;;5009062;28;20397;-62
2021/11/22 10:25:45;;;;;;;2.10;0.65;;;11.00;97.00;;;;;;5001215;28;20025;-63
2021/11/22 10:28:23;;;;;;;1.38;0.50;;;11.30;96.10;;;;;;5002471;28;20026;-63
2021/11/22 10:31:03;;;;;;;2.47;0.70;;;11.60;95.70;;;;;;4991386;28;20108;-63
2021/11/22 10:33:31;;;;;;;1.45;0.50;;;11.70;94.90;;;;;;4998904;28;20030;-62
2021/11/22 10:36:00;;;;;;;2.20;0.50;;;11.90;94.70;;;;;;4987860;28;20022;-63
2021/11/22 10:38:28;;;;;;;3.65;0.70;;;12.30;94.30;;;;;;5000204;28;20023;-63
2021/11/22 10:40:58;;;;;;;2.15;0.80;;;12.80;93.10;;;;;;5010090;28;20022;-62
2021/11/22 10:43:33;;;;;;;2.05;0.70;;;13.10;91.80;;;;;;5008715;28;20019;-63
2021/11/22 10:45:58;;;;;;;1.95;0.50;;;13.80;90.80;;;;;;5001605;28;20076;-62
2021/11/22 10:48:32;;;;;;;2.63;0.65;;;14.40;89.80;;;;;;5003160;28;20109;-63
2021/11/22 10:51:13;;;;;;;1.77;0.50;;;14.60;87.80;;;;;;4995530;28;20062;-63
2021/11/22 10:54:05;;;;;;;;;;;;;;;;;;;;;
2021/11/22 10:56:40;;;;;;;3.08;0.50;;;14.50;86.20;;;;;;4999074;28;20022;-62
2021/11/22 10:59:14;;;;;;;2.20;0.60;;;14.50;85.90;;;;;;5010760;28;20056;-63
2021/11/22 11:01:52;;;;;;;1.98;0.40;;;14.90;85.30;;;;;;4993734;28;20033;-63
2021/11/22 11:04:22;;;;;;;2.30;0.70;;;15.90;81.40;;;;;;5013444;28;20116;-63
2021/11/22 11:07:07;;;;;;;2.28;0.75;;;16.60;77.50;;;;;;5017578;28;20030;-63
2021/11/22 11:09:36;;;;;;;1.52;0.40;;;17.70;75.20;;;;;;5009962;28;20037;-63
2021/11/22 11:12:15;;;;;;;;;;;18.60;73.30;;;;;;5012911;28;20030;-63
2021/11/22 11:14:47;;;;;;;2.10;0.50;;;19.00;73.00;;;;;;4999924;28;19905;-62
2021/11/22 11:17:44;;;;;;;1.10;0.30;;;19.40;69.00;;;;;;5016900;28;20489;-62
2021/11/22 11:20:39;;;;;;;1.85;0.70;;;20.00;65.00;;;;;;5016412;28;20022;-62
2021/11/22 11:23:05;;;;;;;1.30;0.40;;;20.70;62.40;;;;;;4999395;28;20033;-62
2021/11/22 11:25:32;;;;;;;2.17;0.40;;;21.20;60.00;;;;;;4997185;28;20101;-62
2021/11/22 11:27:57;;;;;;;0.55;0.20;;;21.30;57.60;;;;;;5002199;28;20033;-62
2021/11/22 11:30:30;;;;;;;1.95;0.63;;;21.70;57.80;;;;;;5004902;28;20034;-62
2021/11/22 11:32:57;;;;;;;2.20;0.45;;;22.40;57.20;;;;;;5009051;28;20045;-62
2021/11/22 11:35:26;;;;;;;3.15;0.50;;;23.30;55.20;;;;;;4974580;28;20448;-62
2021/11/22 11:38:27;;;;;;;0.98;0.30;;;24.40;50.60;;;;;;5000956;28;20482;-62
2021/11/22 11:41:27;;;;;;;0.32;0.20;;;25.60;49.80;;;;;;5011376;28;20034;-62
2021/11/22 11:44:25;;;;;;;2.05;0.40;;;26.80;48.00;;;;;;4979405;28;20046;-63
2021/11/22 11:47:27;;;;;;;1.77;0.38;;;28.10;46.10;;;;;;5002574;28;20177;-62
2021/11/22 11:49:55;;;;;;;1.27;0.40;;;29.30;43.80;;;;;;5007789;28;20032;-63
2021/11/22 11:52:28;;;;;;;0.50;0.38;;;30.10;41.10;;;;;;4986367;28;20064;-63
2021/11/22 11:54:55;;;;;;;1.65;0.30;;;30.80;40.10;;;;;;5013560;28;20026;-63
2021/11/22 11:57:24;;;;;;;2.15;0.50;;;31.40;39.80;;;;;;5019094;28;20069;-63
2021/11/22 12:00:16;;;;;;;1.13;0.40;;;32.10;37.50;;;;;;4999013;28;20371;-63
2021/11/22 12:03:15;;;;;;;0.65;0.30;;;32.60;37.20;;;;;;4994752;28;20034;-63
2021/11/22 12:05:48;;;;;;;1.20;0.45;;;33.10;36.20;;;;;;5010154;28;20461;-63
2021/11/22 12:08:21;;;;;;;0.85;0.55;;;33.50;35.90;;;;;;5016885;28;20082;-63
2021/11/22 12:10:46;;;;;;;1.35;0.47;;;33.80;35.10;;;;;;5025343;28;20029;-63
2021/11/22 12:13:14;;;;;;;0.80;0.40;;;34.10;34.90;;;;;;5029436;28;20030;-63
2021/11/22 12:15:56;;;;;;;0.88;0.40;;;34.50;34.70;;;;;;5004896;28;20013;-63
2021/11/22 12:21:29;;;;;;;2.33;0.40;;;35.10;33.60;;;;;;5020472;28;20038;-63
2021/11/22 12:23:56;;;;;;;1.27;0.50;;;35.20;33.40;;;;;;5026711;28;20026;-63
2021/11/22 12:26:29;;;;;;;1.20;0.43;;;35.50;33.30;;;;;;5030640;28;20362;-63
2021/11/22 12:29:01;;;;;;;0.90;0.40;;;35.60;33.20;;;;;;5008743;28;20022;-64
2021/11/22 12:31:30;;;;;;;1.88;0.75;;;35.90;33.00;;;;;;5015761;28;20656;-64
2021/11/22 12:34:04;;;;;;;2.30;0.60;;;35.70;31.00;;;;;;5019808;28;20470;-64
2021/11/22 12:36:33;;;;;;;1.15;0.40;;;35.70;31.80;;;;;;5010188;28;20042;-64
2021/11/22 12:39:09;;;;;;;;;;;35.80;32.10;;;;;;5025919;28;20029;-64
2021/11/22 12:41:38;;;;;;;1.40;0.50;;;36.10;32.50;;;;;;5018277;28;20316;-64
2021/11/22 12:44:14;;;;;;;;;;;36.00;31.80;;;;;;5018739;28;20022;-64
2021/11/22 12:46:52;;;;;;;0.65;0.35;;;36.20;32.20;;;;;;5018361;28;19913;-64
2021/11/22 12:49:58;;;;;;;;;;;36.10;30.50;;;;;;5013390;28;20113;-64
2021/11/22 12:53:04;;;;;;;1.20;0.50;;;35.80;31.10;;;;;;5002181;28;19916;-64
2021/11/22 12:55:36;;;;;;;0.82;0.40;;;35.60;29.90;;;;;;5000912;28;20475;-64
2021/11/22 12:58:11;;;;;;;0.75;0.30;;;35.70;30.10;;;;;;5005021;28;20047;-64
2021/11/22 13:00:38;;;;;;;0.95;0.40;;;36.00;30.60;;;;;;5009348;28;20029;-64
2021/11/22 13:03:05;;;;;;;0.85;0.52;;;36.00;30.00;;;;;;4998857;28;20041;-64
2021/11/22 13:05:53;;;;;;;2.15;0.73;;;35.90;29.10;;;;;;5009300;28;20478;-65
2021/11/22 13:08:19;;;;;;;0.98;0.60;;;35.80;29.30;;;;;;5007366;28;20113;-64
2021/11/22 13:10:49;;;;;;;0.75;0.38;;;35.30;29.10;;;;;;4999640;28;20121;-64
2021/11/22 13:14:01;;;;;;;1.80;0.40;;;35.40;29.40;;;;;;5011587;28;20018;-65
2021/11/22 13:16:01;;;;;;;0.50;0.40;;;35.60;29.30;;;;;;4998358;28;20121;-64
2021/11/22 13:18:32;;;;;;;1.23;0.50;;;35.40;28.90;;;;;;5007663;28;20183;-64
2021/11/22 13:21:04;;;;;;;1.10;0.60;;;35.30;28.70;;;;;;5021615;28;20029;-65